Time;durP1;ratioP1;P1;durP2;ratioP2;P2;SDS_P1;SDS_P2;PMS_P1;PMS_P2;Temp;Humidity;BMP_temperature;BMP_pressure;BME280_temperature;BME280_humidity;BME280_pressure;Samples;Min_cycle;Max_cycle;Signal;HPM_P1;HPM_P2
2022/06/28 00:00:29;;;;;;;2.78;1.10;;;24.30;54.00;23.40;101624.00;;;;5060159;28;20037;-66
2022/06/28 00:03:15;;;;;;;1.13;0.68;;;24.30;53.30;23.40;101641.00;;;;5066030;28;20051;-66
2022/06/28 00:06:01;;;;;;;0.90;0.90;;;24.20;53.20;23.40;101645.00;;;;5063225;28;20044;-66
2022/06/28 00:08:47;;;;;;;0.95;0.90;;;24.30;53.30;23.40;101635.00;;;;5062878;28;20409;-66
2022/06/28 00:11:33;;;;;;;1.15;0.77;;;24.30;53.30;23.40;101637.00;;;;5061359;28;20547;-67
2022/06/28 00:17:24;;;;;;;0.55;0.55;;;24.20;53.20;23.40;101633.00;;;;5049103;28;20106;-67
2022/06/28 00:20:10;;;;;;;2.58;0.80;;;24.20;53.30;23.40;101633.00;;;;5049243;28;20291;-65
2022/06/28 00:22:56;;;;;;;1.13;0.77;;;24.20;53.30;23.40;101635.00;;;;5045196;28;20037;-66
2022/06/28 00:25:42;;;;;;;0.60;0.60;;;24.20;53.90;23.30;101640.00;;;;5061267;28;20511;-66
2022/06/28 00:28:28;;;;;;;1.33;0.82;;;24.10;53.20;23.30;101643.00;;;;5060267;28;20028;-66
2022/06/28 00:31:15;;;;;;;0.90;0.80;;;24.20;53.20;23.30;101640.00;;;;5058893;28;20036;-66
2022/06/28 00:34:03;;;;;;;0.65;0.60;;;24.20;53.20;23.30;101639.00;;;;5064562;28;20044;-66
2022/06/28 00:36:49;;;;;;;0.70;0.70;;;24.20;53.20;23.30;101640.00;;;;5063337;28;20043;-66
2022/06/28 00:39:35;;;;;;;1.92;0.73;;;24.20;53.20;23.30;101647.00;;;;5062952;28;20575;-67
2022/06/28 00:42:21;;;;;;;1.05;0.80;;;24.20;53.20;23.30;101646.00;;;;5062222;28;20036;-66
2022/06/28 00:45:08;;;;;;;0.80;0.73;;;24.20;53.10;23.30;101652.00;;;;5038362;28;20131;-66
2022/06/28 00:47:55;;;;;;;0.80;0.70;;;24.20;53.10;23.30;101658.00;;;;5062661;28;20037;-66
2022/06/28 00:50:41;;;;;;;0.82;0.80;;;24.20;53.10;23.30;101651.00;;;;5049931;28;20553;-66
2022/06/28 00:53:27;;;;;;;2.00;0.88;;;24.20;53.10;23.30;101653.00;;;;5067550;28;20043;-66
2022/06/28 00:56:13;;;;;;;2.53;0.80;;;24.20;53.10;23.30;101659.00;;;;5045498;28;20055;-66
2022/06/28 00:58:59;;;;;;;1.63;0.95;;;24.10;53.00;23.30;101662.00;;;;5064000;28;20041;-66
2022/06/28 01:01:45;;;;;;;0.60;0.60;;;24.20;53.00;23.30;101666.00;;;;5049223;28;20274;-67
2022/06/28 01:04:32;;;;;;;0.50;0.50;;;24.20;53.00;23.30;101664.00;;;;5060549;28;20045;-66
2022/06/28 01:07:18;;;;;;;0.50;0.50;;;24.10;53.00;23.30;101662.00;;;;5057807;28;20580;-66
2022/06/28 01:10:04;;;;;;;0.60;0.60;;;24.10;53.00;23.30;101667.00;;;;5065131;28;20307;-66
2022/06/28 01:12:50;;;;;;;1.85;0.52;;;24.10;53.00;23.20;101669.00;;;;5067018;28;20068;-66
2022/06/28 01:15:37;;;;;;;0.63;0.50;;;24.10;53.00;23.20;101670.00;;;;5047643;28;20040;-66
2022/06/28 01:18:23;;;;;;;1.02;0.68;;;24.10;52.90;23.30;101675.00;;;;5047820;28;20448;-66
2022/06/28 01:21:14;;;;;;;0.77;0.70;;;24.10;52.80;23.20;101673.00;;;;5048508;28;20047;-66
2022/06/28 01:24:00;;;;;;;0.85;0.57;;;24.00;52.80;23.20;101674.00;;;;5052396;28;20040;-66
2022/06/28 01:26:46;;;;;;;0.60;0.60;;;24.00;52.80;23.20;101680.00;;;;5064707;28;20047;-66
2022/06/28 01:29:32;;;;;;;0.65;0.60;;;24.00;52.80;23.20;101676.00;;;;5067300;28;20398;-66
2022/06/28 01:32:19;;;;;;;0.50;0.50;;;24.00;52.80;23.20;101682.00;;;;5067259;28;20047;-66
2022/06/28 01:35:05;;;;;;;0.57;0.52;;;24.00;52.80;23.20;101688.00;;;;5050041;28;20504;-66
2022/06/28 01:37:51;;;;;;;1.10;0.55;;;24.00;52.80;23.20;101685.00;;;;5049397;28;20398;-66
2022/06/28 01:40:37;;;;;;;0.52;0.50;;;24.00;52.70;23.20;101689.00;;;;5047919;28;20043;-67
2022/06/28 01:43:23;;;;;;;0.70;0.60;;;24.00;52.70;23.20;101695.00;;;;5050291;28;20044;-66
2022/06/28 01:46:09;;;;;;;0.40;0.40;;;24.00;52.60;23.20;101696.00;;;;5049629;28;20044;-66
2022/06/28 01:48:55;;;;;;;0.90;0.38;;;24.00;52.60;23.20;101704.00;;;;5045712;28;20052;-66
2022/06/28 01:51:41;;;;;;;1.60;0.50;;;24.00;52.60;23.10;101700.00;;;;5051669;28;20116;-66
2022/06/28 01:54:27;;;;;;;0.95;0.60;;;24.00;52.60;23.10;101707.00;;;;5064275;28;20394;-66
2022/06/28 01:57:14;;;;;;;0.40;0.40;;;24.00;52.60;23.10;101710.00;;;;5061298;28;20032;-66
2022/06/28 02:00:00;;;;;;;1.48;0.50;;;24.00;52.70;23.10;101708.00;;;;5065302;28;20414;-66
2022/06/28 02:02:46;;;;;;;0.50;0.35;;;24.00;52.60;23.10;101713.00;;;;5050735;28;20090;-66
2022/06/28 02:05:33;;;;;;;0.40;0.40;;;23.90;52.50;23.10;101712.00;;;;5065358;28;20055;-66
2022/06/28 02:08:19;;;;;;;1.65;0.60;;;24.00;52.60;23.10;101713.00;;;;5044734;28;20041;-66
2022/06/28 02:11:05;;;;;;;0.60;0.60;;;24.00;52.50;23.10;101720.00;;;;5065568;28;20048;-66
2022/06/28 02:13:51;;;;;;;0.55;0.50;;;24.00;52.50;23.10;101723.00;;;;5023609;28;20032;-66
2022/06/28 02:16:38;;;;;;;0.40;0.38;;;24.00;52.40;23.10;101714.00;;;;5065544;28;20040;-66
2022/06/28 02:19:25;;;;;;;0.40;0.40;;;24.00;52.50;23.10;101724.00;;;;5065757;28;20040;-66
2022/06/28 02:22:11;;;;;;;1.60;0.55;;;24.00;52.40;23.10;101726.00;;;;5061637;28;20119;-66
2022/06/28 02:24:57;;;;;;;0.47;0.40;;;23.90;52.30;23.10;101719.00;;;;5063274;28;20413;-66
2022/06/28 02:27:43;;;;;;;1.80;0.60;;;24.00;52.30;23.10;101721.00;;;;5059748;28;20040;-66
2022/06/28 02:30:29;;;;;;;0.40;0.40;;;23.90;52.30;23.10;101731.00;;;;5048286;28;20387;-66
2022/06/28 02:33:15;;;;;;;0.40;0.40;;;23.90;52.30;23.00;101728.00;;;;5061277;28;20040;-66
2022/06/28 02:42:05;;;;;;;1.23;0.40;;;23.90;52.30;23.00;101728.00;;;;5057750;28;20041;-67
2022/06/28 02:44:51;;;;;;;1.65;0.50;;;23.90;52.20;23.00;101734.00;;;;5065649;28;20374;-66
2022/06/28 02:47:37;;;;;;;0.65;0.63;;;23.80;52.20;23.00;101729.00;;;;5045407;28;20037;-66
2022/06/28 02:50:23;;;;;;;1.65;0.60;;;23.80;52.20;23.00;101733.00;;;;5048535;28;20040;-67
2022/06/28 02:53:09;;;;;;;0.95;0.52;;;23.80;52.20;23.00;101733.00;;;;5046291;28;20375;-66
2022/06/28 02:55:55;;;;;;;1.13;0.60;;;23.80;52.20;23.00;101727.00;;;;5060818;28;20044;-66
2022/06/28 02:58:41;;;;;;;0.70;0.40;;;23.80;52.20;23.00;101741.00;;;;5064193;28;20047;-66
2022/06/28 03:01:27;;;;;;;2.25;0.70;;;23.80;52.20;23.00;101733.00;;;;5050488;28;20468;-66
2022/06/28 03:04:13;;;;;;;0.68;0.50;;;23.80;52.20;23.00;101741.00;;;;5061507;28;20049;-66
2022/06/28 03:06:59;;;;;;;0.70;0.70;;;23.80;52.20;23.00;101736.00;;;;5056121;28;20091;-67
2022/06/28 03:09:46;;;;;;;0.70;0.70;;;23.80;52.20;23.00;101737.00;;;;5063892;28;20044;-66
2022/06/28 03:12:32;;;;;;;0.75;0.50;;;23.80;52.20;23.00;101741.00;;;;5060461;28;20394;-66
2022/06/28 03:15:18;;;;;;;0.47;0.47;;;23.80;52.20;23.00;101746.00;;;;5050107;28;20493;-66
2022/06/28 03:18:04;;;;;;;0.50;0.50;;;23.90;52.10;23.00;101755.00;;;;5070172;28;20048;-66
2022/06/28 03:20:50;;;;;;;1.45;0.60;;;23.80;52.10;23.00;101756.00;;;;5069127;28;20102;-66
2022/06/28 03:23:37;;;;;;;0.45;0.45;;;23.80;52.10;23.00;101759.00;;;;5064061;28;20037;-67
2022/06/28 03:26:23;;;;;;;0.85;0.60;;;23.80;52.10;23.00;101761.00;;;;5062951;28;20044;-66
2022/06/28 03:29:09;;;;;;;0.80;0.47;;;23.80;52.10;23.00;101750.00;;;;5048949;28;20051;-66
2022/06/28 03:31:55;;;;;;;1.77;0.60;;;23.70;52.10;23.00;101761.00;;;;5052916;28;20047;-66
2022/06/28 03:34:41;;;;;;;0.95;0.57;;;23.80;52.10;23.00;101765.00;;;;5067359;28;20464;-66
2022/06/28 03:37:27;;;;;;;1.00;0.68;;;23.80;52.00;22.90;101767.00;;;;5048085;28;20502;-66
2022/06/28 03:40:13;;;;;;;0.50;0.47;;;23.80;52.00;23.00;101769.00;;;;5067694;28;20165;-67
2022/06/28 03:42:59;;;;;;;0.50;0.50;;;23.80;52.00;23.00;101771.00;;;;5065056;28;20063;-66
2022/06/28 03:45:45;;;;;;;2.05;0.80;;;23.80;52.00;23.00;101778.00;;;;5066425;28;20116;-66
2022/06/28 03:48:31;;;;;;;1.15;0.50;;;23.80;52.00;23.00;101769.00;;;;5067556;28;20437;-67
2022/06/28 03:51:17;;;;;;;0.47;0.47;;;23.80;51.90;23.00;101760.00;;;;5065112;28;20093;-67
2022/06/28 03:54:03;;;;;;;2.25;0.70;;;23.80;51.90;22.90;101769.00;;;;5051804;28;20512;-67
2022/06/28 03:56:49;;;;;;;0.80;0.65;;;23.80;51.90;22.90;101766.00;;;;5068780;28;20486;-66
2022/06/28 03:59:36;;;;;;;0.63;0.55;;;23.80;51.90;23.00;101764.00;;;;5068073;28;20039;-66
2022/06/28 04:02:23;;;;;;;1.85;0.60;;;23.80;51.80;23.00;101762.00;;;;5042275;28;20067;-66
2022/06/28 04:05:09;;;;;;;0.75;0.70;;;23.70;51.70;22.90;101766.00;;;;5066865;28;20044;-67
2022/06/28 04:07:55;;;;;;;2.20;0.80;;;23.70;51.80;22.90;101759.00;;;;5066430;28;20072;-66
2022/06/28 04:10:41;;;;;;;2.60;0.68;;;23.80;51.80;22.90;101758.00;;;;5064049;28;20033;-66
2022/06/28 04:13:27;;;;;;;1.10;0.50;;;23.80;51.80;22.90;101757.00;;;;5066911;28;20036;-66
2022/06/28 04:16:14;;;;;;;1.58;1.27;;;23.80;51.90;23.00;101763.00;;;;5067601;28;20064;-66
2022/06/28 04:19:00;;;;;;;0.97;0.60;;;23.80;51.80;22.90;101770.00;;;;5061486;28;20444;-66
2022/06/28 04:21:46;;;;;;;3.28;1.00;;;23.80;51.80;22.90;101766.00;;;;5067739;28;20477;-66
2022/06/28 04:24:32;;;;;;;0.95;0.70;;;23.70;51.70;23.00;101768.00;;;;5064349;28;20047;-66
2022/06/28 04:27:18;;;;;;;2.17;1.00;;;23.80;51.70;22.90;101772.00;;;;5065602;28;20477;-66
2022/06/28 04:30:04;;;;;;;1.58;0.75;;;23.80;51.70;22.90;101780.00;;;;5067421;28;20106;-67
2022/06/28 04:32:51;;;;;;;0.57;0.57;;;23.80;51.70;22.90;101776.00;;;;5068982;28;20510;-66
2022/06/28 04:35:37;;;;;;;1.38;0.65;;;23.80;51.70;22.90;101787.00;;;;5063924;28;20082;-67
2022/06/28 04:38:23;;;;;;;3.25;0.75;;;23.80;51.60;22.90;101779.00;;;;5068206;28;20508;-67
2022/06/28 04:41:09;;;;;;;2.95;0.80;;;23.80;51.60;22.90;101787.00;;;;5067243;28;20166;-67
2022/06/28 04:43:56;;;;;;;3.05;1.00;;;23.80;51.60;22.90;101784.00;;;;5069807;28;20044;-67
2022/06/28 04:46:42;;;;;;;0.90;0.88;;;23.80;51.60;22.90;101775.00;;;;5069338;28;20040;-67
2022/06/28 04:49:28;;;;;;;1.15;0.88;;;23.80;51.60;22.90;101784.00;;;;5062614;28;20032;-67
2022/06/28 04:52:14;;;;;;;0.73;0.73;;;23.80;51.60;22.90;101786.00;;;;5048338;28;20036;-67
2022/06/28 04:55:00;;;;;;;1.70;0.88;;;23.80;51.60;22.90;101783.00;;;;5066444;28;20052;-67
2022/06/28 04:57:46;;;;;;;2.25;1.02;;;23.80;51.60;22.90;101780.00;;;;5069004;28;20036;-66
2022/06/28 05:00:32;;;;;;;0.75;0.75;;;23.80;51.70;22.90;101784.00;;;;5049152;28;20040;-67
2022/06/28 05:03:18;;;;;;;3.72;1.05;;;23.80;51.60;22.90;101779.00;;;;5067146;28;20041;-67
2022/06/28 05:06:04;;;;;;;2.17;0.80;;;23.70;51.50;22.90;101783.00;;;;5061494;28;20044;-67
2022/06/28 05:08:50;;;;;;;1.25;1.10;;;23.80;51.50;22.90;101791.00;;;;5064165;28;20040;-66
2022/06/28 05:11:37;;;;;;;2.15;1.10;;;23.80;51.50;22.90;101783.00;;;;5068042;28;20684;-67
2022/06/28 05:14:23;;;;;;;1.48;1.20;;;23.80;51.50;22.90;101788.00;;;;5064409;28;20036;-66
2022/06/28 05:17:09;;;;;;;2.10;1.10;;;23.80;51.50;22.90;101798.00;;;;5063958;28;20036;-66
2022/06/28 05:19:55;;;;;;;1.27;1.00;;;23.80;51.50;22.90;101797.00;;;;5065864;28;20052;-66
2022/06/28 05:22:41;;;;;;;1.70;1.23;;;23.80;51.50;22.90;101792.00;;;;5066599;28;20047;-66
2022/06/28 05:25:27;;;;;;;3.30;1.60;;;23.80;51.50;22.90;101796.00;;;;5065532;28;20480;-66
2022/06/28 05:28:13;;;;;;;2.13;1.10;;;23.80;51.60;22.90;101795.00;;;;5065358;28;20102;-66
2022/06/28 05:30:59;;;;;;;2.47;1.30;;;23.80;51.60;22.90;101799.00;;;;5063914;28;20063;-66
2022/06/28 05:33:45;;;;;;;1.20;1.10;;;23.80;51.70;22.90;101800.00;;;;5064986;28;20474;-66
2022/06/28 05:36:32;;;;;;;1.55;1.25;;;23.80;51.70;22.90;101798.00;;;;5066988;28;20040;-66
2022/06/28 05:39:18;;;;;;;1.65;1.38;;;23.80;51.50;22.90;101793.00;;;;5048549;28;20405;-66
2022/06/28 05:42:04;;;;;;;3.33;1.27;;;23.80;51.60;22.90;101799.00;;;;5064856;28;20044;-66
2022/06/28 05:44:50;;;;;;;1.58;1.33;;;23.80;51.60;22.90;101792.00;;;;5065100;28;20040;-66
2022/06/28 05:47:36;;;;;;;2.28;1.70;;;23.80;51.50;22.90;101798.00;;;;5063406;28;20058;-66
2022/06/28 05:50:23;;;;;;;2.22;1.50;;;23.70;51.50;22.90;101801.00;;;;5066570;28;20036;-66
2022/06/28 05:53:09;;;;;;;2.33;1.38;;;23.80;51.50;22.90;101791.00;;;;5047286;28;20398;-66
2022/06/28 05:55:55;;;;;;;1.70;1.50;;;23.80;51.50;22.90;101795.00;;;;5064205;28;20053;-66
2022/06/28 05:58:41;;;;;;;1.60;1.50;;;23.80;51.60;22.90;101795.00;;;;5042615;28;20052;-66
2022/06/28 06:01:28;;;;;;;2.85;1.80;;;23.80;51.50;22.90;101801.00;;;;5062969;28;20040;-66
2022/06/28 06:04:14;;;;;;;2.08;1.50;;;23.80;51.50;22.90;101805.00;;;;5061938;28;20128;-67
2022/06/28 06:07:00;;;;;;;2.97;1.70;;;23.80;51.40;22.90;101808.00;;;;5063501;28;20090;-66
2022/06/28 06:09:46;;;;;;;2.33;1.75;;;23.80;51.50;22.90;101795.00;;;;5066987;28;20043;-67
2022/06/28 06:12:32;;;;;;;2.90;1.98;;;23.80;51.50;22.90;101806.00;;;;5050409;28;20064;-67
2022/06/28 06:15:18;;;;;;;2.25;1.88;;;23.80;51.50;22.90;101814.00;;;;5068947;28;20553;-67
2022/06/28 06:18:04;;;;;;;1.90;1.67;;;23.90;51.50;22.90;101809.00;;;;5066922;28;20044;-67
2022/06/28 06:20:50;;;;;;;2.83;1.95;;;23.80;51.50;22.90;101820.00;;;;5051065;28;20123;-67
2022/06/28 06:23:36;;;;;;;2.38;1.88;;;23.80;51.50;23.00;101816.00;;;;5024503;28;20041;-66
2022/06/28 06:26:24;;;;;;;2.50;1.73;;;23.80;51.50;22.90;101817.00;;;;5066679;28;20059;-66
2022/06/28 06:29:11;;;;;;;3.17;1.85;;;23.80;51.50;23.00;101818.00;;;;5065590;28;20036;-67
2022/06/28 06:31:57;;;;;;;3.03;2.23;;;23.90;51.50;23.00;101811.00;;;;5056259;28;20063;-67
2022/06/28 06:34:43;;;;;;;3.80;1.70;;;23.80;51.50;23.00;101807.00;;;;5066192;28;20032;-66
2022/06/28 06:37:29;;;;;;;2.35;1.73;;;23.80;51.50;23.00;101814.00;;;;5066016;28;20479;-66
2022/06/28 06:40:16;;;;;;;2.97;2.08;;;23.90;51.50;23.00;101817.00;;;;5051970;28;20036;-66
2022/06/28 06:43:03;;;;;;;2.75;2.03;;;23.90;51.50;23.00;101817.00;;;;5066201;28;20079;-66
2022/06/28 06:45:49;;;;;;;2.80;2.08;;;23.80;51.50;23.00;101818.00;;;;5048095;28;20064;-67
2022/06/28 06:48:35;;;;;;;3.20;1.80;;;23.90;51.50;23.00;101823.00;;;;5063683;28;20058;-66
2022/06/28 06:51:21;;;;;;;2.55;2.20;;;23.90;51.50;23.00;101816.00;;;;5061305;28;20033;-66
2022/06/28 06:54:07;;;;;;;4.00;2.33;;;23.90;51.50;23.00;101817.00;;;;5065923;28;20135;-66
2022/06/28 06:56:53;;;;;;;3.53;2.22;;;23.90;51.50;23.00;101827.00;;;;5064068;28;20055;-67
2022/06/28 06:59:39;;;;;;;2.70;2.08;;;23.80;51.50;23.00;101828.00;;;;5067871;28;20036;-67
2022/06/28 07:02:25;;;;;;;4.43;2.40;;;23.90;51.50;23.00;101824.00;;;;5066046;28;20036;-67
2022/06/28 07:05:11;;;;;;;2.60;2.35;;;23.90;51.50;23.00;101823.00;;;;5045002;28;20476;-67
2022/06/28 07:07:57;;;;;;;3.15;2.50;;;23.90;51.50;23.00;101823.00;;;;5048725;28;20039;-67
2022/06/28 07:10:43;;;;;;;3.50;2.50;;;23.90;51.50;23.00;101825.00;;;;5059141;28;20089;-67
2022/06/28 07:13:29;;;;;;;2.58;2.08;;;24.00;51.60;23.00;101819.00;;;;5064543;28;20044;-67
2022/06/28 07:16:15;;;;;;;5.05;2.33;;;23.80;51.50;23.00;101815.00;;;;5065887;28;20055;-67
2022/06/28 07:19:01;;;;;;;4.13;2.55;;;23.80;51.50;23.00;101818.00;;;;5046830;28;20486;-66
2022/06/28 07:21:48;;;;;;;3.55;2.35;;;23.90;51.50;23.00;101814.00;;;;5046493;28;20052;-67
2022/06/28 07:24:34;;;;;;;3.63;2.20;;;24.00;51.60;23.00;101818.00;;;;5064399;28;20390;-67
2022/06/28 07:27:20;;;;;;;4.28;2.22;;;23.90;51.60;23.00;101822.00;;;;5061723;28;20122;-67
2022/06/28 07:30:07;;;;;;;3.58;2.05;;;24.00;51.60;23.00;101811.00;;;;5048103;28;20037;-67
2022/06/28 07:32:53;;;;;;;5.50;2.50;;;24.00;51.60;23.00;101831.00;;;;5047807;28;20500;-67
2022/06/28 07:35:39;;;;;;;3.25;2.03;;;24.00;51.70;23.00;101819.00;;;;5062698;28;20087;-67
2022/06/28 07:38:29;;;;;;;2.80;2.20;;;23.90;51.50;23.00;101822.00;;;;5057859;28;20112;-67
2022/06/28 07:41:15;;;;;;;2.88;2.55;;;24.00;51.60;23.00;101823.00;;;;5064534;28;20124;-67
2022/06/28 07:44:01;;;;;;;2.38;2.00;;;24.00;51.60;23.00;101817.00;;;;5064434;28;20055;-67
2022/06/28 07:46:47;;;;;;;3.60;2.20;;;23.90;51.50;23.00;101818.00;;;;5060304;28;20044;-66
2022/06/28 07:52:38;;;;;;;2.25;1.95;;;24.00;51.60;23.00;101815.00;;;;5058789;28;20043;-67
2022/06/28 07:55:24;;;;;;;2.88;2.00;;;24.00;51.60;23.00;101806.00;;;;5064360;28;20367;-66
2022/06/28 07:58:10;;;;;;;3.10;1.77;;;24.00;51.60;23.00;101812.00;;;;5063204;28;20048;-66
2022/06/28 08:00:56;;;;;;;2.92;1.85;;;23.90;51.50;23.00;101799.00;;;;5060973;28;20052;-66
2022/06/28 08:03:43;;;;;;;3.78;1.98;;;24.00;51.60;23.00;101804.00;;;;5051852;28;20102;-66
2022/06/28 08:06:29;;;;;;;2.90;2.53;;;23.90;51.50;23.00;101804.00;;;;5067827;28;20089;-67
2022/06/28 08:09:15;;;;;;;3.97;2.28;;;24.00;51.60;23.00;101800.00;;;;5063862;28;20457;-67
2022/06/28 08:12:01;;;;;;;3.17;1.95;;;24.00;51.50;23.00;101789.00;;;;5060545;28;20040;-66
2022/06/28 08:14:47;;;;;;;2.63;1.77;;;24.00;51.50;23.00;101795.00;;;;5069003;28;20036;-67
2022/06/28 08:17:34;;;;;;;3.67;1.50;;;24.00;51.40;23.00;101790.00;;;;5062098;28;20121;-66
2022/06/28 08:20:20;;;;;;;2.83;2.03;;;23.90;51.40;23.00;101794.00;;;;5051987;28;20043;-67
2022/06/28 08:23:06;;;;;;;1.77;1.40;;;24.00;51.40;23.00;101794.00;;;;5067570;28;20120;-69
2022/06/28 08:25:52;;;;;;;2.58;1.63;;;24.00;51.40;23.00;101794.00;;;;5049157;28;20399;-66
2022/06/28 08:28:38;;;;;;;3.30;1.52;;;24.00;51.30;23.00;101783.00;;;;5061851;28;20048;-67
2022/06/28 08:31:24;;;;;;;3.45;1.60;;;24.00;51.40;23.00;101786.00;;;;5067033;28;20121;-66
2022/06/28 08:34:11;;;;;;;2.22;1.50;;;24.00;51.40;23.00;101783.00;;;;5045808;28;20047;-66
2022/06/28 08:36:57;;;;;;;2.90;1.40;;;24.00;51.30;23.00;101790.00;;;;5053282;28;20063;-66
2022/06/28 08:39:43;;;;;;;2.72;1.15;;;24.00;51.30;23.00;101795.00;;;;5062267;28;20044;-66
2022/06/28 08:42:33;;;;;;;2.00;1.40;;;24.00;51.20;23.00;101785.00;;;;5061055;28;20093;-66
2022/06/28 08:45:20;;;;;;;4.30;1.27;;;24.00;51.20;23.00;101787.00;;;;5049317;28;20098;-67
2022/06/28 08:48:33;;;;;;;2.33;1.17;;;24.00;51.20;23.00;101777.00;;;;5041234;28;20059;-66
2022/06/28 08:51:20;;;;;;;1.20;0.93;;;24.00;51.30;23.00;101779.00;;;;5041106;28;20029;-66
2022/06/28 08:54:06;;;;;;;2.08;1.17;;;24.00;51.10;23.00;101777.00;;;;5047130;28;20037;-66
2022/06/28 08:56:52;;;;;;;3.97;1.60;;;24.00;51.10;23.00;101774.00;;;;5047841;28;20057;-67
2022/06/28 08:59:39;;;;;;;2.73;1.10;;;24.00;51.00;23.00;101772.00;;;;5037426;28;20623;-66
2022/06/28 09:02:25;;;;;;;1.40;0.90;;;24.00;51.10;23.00;101778.00;;;;5040349;28;20299;-66
2022/06/28 09:05:11;;;;;;;3.50;1.10;;;24.10;51.00;23.00;101771.00;;;;5067380;28;20098;-66
2022/06/28 09:07:57;;;;;;;2.80;1.38;;;24.00;51.10;23.00;101764.00;;;;5038961;28;20036;-66
2022/06/28 09:10:43;;;;;;;1.08;0.90;;;24.10;50.90;23.00;101766.00;;;;5038651;28;20044;-66
2022/06/28 09:13:29;;;;;;;2.72;1.13;;;24.00;50.80;23.00;101767.00;;;;5058884;28;20059;-66
2022/06/28 09:16:15;;;;;;;1.17;1.00;;;24.00;50.80;23.00;101768.00;;;;5067455;28;20385;-66
2022/06/28 09:19:01;;;;;;;3.47;0.90;;;24.10;50.70;23.00;101748.00;;;;5067173;28;20356;-66
2022/06/28 09:21:47;;;;;;;1.48;0.80;;;24.10;50.80;23.00;101770.00;;;;5064544;28;20063;-66
2022/06/28 09:24:33;;;;;;;3.17;1.05;;;24.10;50.70;23.00;101768.00;;;;5059083;28;20044;-72
2022/06/28 09:27:37;;;;;;;2.78;0.70;;;24.00;50.50;23.00;101764.00;;;;5043321;28;20119;-65
2022/06/28 09:30:26;;;;;;;1.73;0.90;;;24.00;50.60;23.00;101763.00;;;;5062318;28;20033;-65
2022/06/28 09:33:26;;;;;;;4.18;0.73;;;24.10;50.50;23.00;101762.00;;;;5047947;28;20076;-65
2022/06/28 09:36:18;;;;;;;2.80;0.88;;;24.00;50.50;23.00;101757.00;;;;5050649;28;20041;-66
2022/06/28 09:39:15;;;;;;;3.72;0.55;;;24.10;50.40;23.00;101757.00;;;;5045629;28;20048;-66
2022/06/28 09:42:21;;;;;;;1.48;0.60;;;24.10;50.40;23.00;101752.00;;;;5065726;28;20041;-66
2022/06/28 09:45:08;;;;;;;1.80;0.60;;;24.10;50.50;23.00;101756.00;;;;5059845;28;20551;-67
2022/06/28 09:47:54;;;;;;;4.20;0.98;;;24.10;50.40;23.00;101755.00;;;;5060430;28;20041;-65
2022/06/28 09:50:40;;;;;;;1.08;0.70;;;24.10;50.20;23.10;101761.00;;;;5017687;28;20520;-66
2022/06/28 09:53:27;;;;;;;0.80;0.55;;;24.10;50.20;23.10;101756.00;;;;5060995;28;20467;-66
2022/06/28 09:56:13;;;;;;;2.35;0.70;;;24.10;50.30;23.10;101742.00;;;;5045790;28;20452;-66
2022/06/28 09:58:59;;;;;;;1.13;0.52;;;24.10;50.10;23.00;101746.00;;;;5046344;28;20291;-66
2022/06/28 10:01:45;;;;;;;2.10;0.68;;;24.20;50.00;23.10;101754.00;;;;5045451;28;20486;-66
2022/06/28 10:04:31;;;;;;;1.25;0.47;;;24.20;49.90;23.10;101753.00;;;;5044944;28;20101;-66
2022/06/28 10:07:18;;;;;;;4.15;0.50;;;24.20;50.00;23.10;101746.00;;;;5060238;28;20150;-65
2022/06/28 10:10:05;;;;;;;0.93;0.40;;;24.10;50.00;23.10;101734.00;;;;5047053;28;20036;-65
2022/06/28 10:16:10;;;;;;;1.75;0.50;;;24.20;49.90;23.10;101734.00;;;;5048324;28;20311;-65
2022/06/28 10:18:56;;;;;;;2.63;0.50;;;24.10;49.60;23.00;101726.00;;;;5049886;28;20044;-65
2022/06/28 10:21:51;;;;;;;1.52;0.45;;;24.10;49.80;23.10;101726.00;;;;5046534;28;20892;-66
2022/06/28 10:24:58;;;;;;;1.15;0.57;;;24.10;49.60;23.10;101732.00;;;;5062503;28;20063;-66
2022/06/28 10:27:49;;;;;;;1.40;0.40;;;24.20;49.50;23.10;101731.00;;;;5051172;28;20037;-66
2022/06/28 10:30:35;;;;;;;1.50;0.50;;;24.20;49.70;23.10;101730.00;;;;5058767;28;20098;-66
2022/06/28 10:33:39;;;;;;;1.92;0.40;;;24.20;49.60;23.10;101730.00;;;;5062654;28;20186;-66
2022/06/28 10:36:27;;;;;;;0.77;0.52;;;24.20;49.70;23.10;101713.00;;;;5052617;28;20066;-66
2022/06/28 10:39:24;;;;;;;0.70;0.38;;;24.20;49.60;23.10;101726.00;;;;5065146;28;20556;-66
2022/06/28 10:42:13;;;;;;;3.20;0.68;;;24.10;49.40;23.10;101717.00;;;;5059318;28;20044;-66
2022/06/28 10:44:59;;;;;;;2.08;0.43;;;24.20;49.40;23.10;101712.00;;;;5039803;28;20497;-66
2022/06/28 10:48:07;;;;;;;2.67;0.82;;;24.20;49.20;23.10;101707.00;;;;5066181;28;20036;-66
2022/06/28 10:50:57;;;;;;;2.53;0.60;;;24.20;49.20;23.10;101711.00;;;;5063613;28;20052;-66
2022/06/28 10:53:57;;;;;;;1.38;0.50;;;24.10;49.10;23.10;101708.00;;;;5064379;28;20052;-66
2022/06/28 10:56:44;;;;;;;2.40;0.50;;;24.20;49.20;23.10;101707.00;;;;5059047;28;20114;-66
2022/06/28 10:59:37;;;;;;;1.48;0.32;;;24.20;49.20;23.10;101708.00;;;;5049098;28;20543;-66
2022/06/28 11:02:24;;;;;;;0.98;0.40;;;24.20;49.10;23.10;101709.00;;;;5062527;28;20047;-66
2022/06/28 11:05:10;;;;;;;1.90;0.38;;;24.20;49.10;23.10;101704.00;;;;5063153;28;20087;-65
2022/06/28 11:08:00;;;;;;;1.15;0.30;;;24.20;49.30;23.10;101703.00;;;;5065856;28;20397;-66
2022/06/28 11:11:05;;;;;;;2.22;0.40;;;24.20;48.90;23.10;101708.00;;;;5047150;28;20040;-66
2022/06/28 11:14:27;;;;;;;1.98;0.50;;;24.20;48.90;23.10;101695.00;;;;5051803;28;20362;-66
2022/06/28 11:17:27;;;;;;;1.30;0.40;;;24.20;48.90;23.10;101698.00;;;;5048216;28;20477;-66
2022/06/28 11:20:16;;;;;;;0.88;0.50;;;24.20;48.80;23.10;101702.00;;;;5062252;28;20037;-66
2022/06/28 11:23:02;;;;;;;1.05;0.30;;;24.20;48.90;23.10;101686.00;;;;5051835;28;20060;-66
2022/06/28 11:29:01;;;;;;;1.60;0.40;;;24.20;48.60;23.20;101682.00;;;;5063816;28;20485;-66
2022/06/28 11:31:47;;;;;;;0.47;0.32;;;24.30;48.70;23.20;101681.00;;;;5046605;28;20119;-66
2022/06/28 11:34:34;;;;;;;0.35;0.30;;;24.20;48.80;23.20;101683.00;;;;5049707;28;20060;-66
2022/06/28 11:37:20;;;;;;;1.02;0.30;;;24.30;48.80;23.20;101693.00;;;;5063857;28;20048;-66
2022/06/28 11:40:07;;;;;;;4.70;0.40;;;24.30;48.90;23.20;101686.00;;;;5068380;28;20533;-65
2022/06/28 11:43:05;;;;;;;1.02;0.43;;;24.30;48.80;23.20;101683.00;;;;5067555;28;20040;-66
2022/06/28 11:45:52;;;;;;;2.25;0.47;;;24.30;48.60;23.20;101681.00;;;;5039108;28;20135;-66
2022/06/28 11:48:38;;;;;;;1.58;0.30;;;24.30;48.60;23.20;101679.00;;;;5065815;28;20444;-66
2022/06/28 11:51:29;;;;;;;1.60;0.40;;;24.30;48.40;23.20;101675.00;;;;5049062;28;20069;-66
2022/06/28 11:54:16;;;;;;;1.60;0.22;;;24.40;49.10;23.20;101679.00;;;;5064181;28;20102;-66
2022/06/28 11:57:16;;;;;;;0.47;0.30;;;24.30;48.50;23.20;101678.00;;;;5064229;28;20074;-66
2022/06/28 12:00:03;;;;;;;0.60;0.30;;;24.30;48.20;23.20;101680.00;;;;5069785;28;20052;-66
2022/06/28 12:02:51;;;;;;;;;;;24.40;48.20;23.20;101678.00;;;;5067734;28;20386;-66
2022/06/28 12:05:38;;;;;;;0.87;0.23;;;24.40;48.70;23.20;101682.00;;;;5066482;28;19916;-66
2022/06/28 12:08:52;;;;;;;0.73;0.30;;;24.40;48.10;23.20;101681.00;;;;5068495;28;20094;-66
2022/06/28 12:11:43;;;;;;;0.85;0.40;;;24.30;48.00;23.20;101682.00;;;;5068434;28;20040;-66
2022/06/28 12:14:31;;;;;;;0.80;0.30;;;24.40;47.70;23.20;101679.00;;;;5061400;28;20040;-66
2022/06/28 12:17:17;;;;;;;0.30;0.20;;;24.40;47.80;23.20;101676.00;;;;5064519;28;20040;-66
2022/06/28 12:20:07;;;;;;;1.27;0.38;;;24.40;47.90;23.20;101675.00;;;;5051361;28;20047;-66
2022/06/28 12:23:05;;;;;;;1.30;0.28;;;24.40;47.80;23.30;101667.00;;;;5046279;28;20045;-66
2022/06/28 12:26:03;;;;;;;0.60;0.20;;;24.40;47.90;23.20;101670.00;;;;5060795;28;20049;-66
2022/06/28 12:28:49;;;;;;;1.08;0.30;;;24.40;47.80;23.20;101673.00;;;;5067457;28;20024;-66
2022/06/28 12:31:35;;;;;;;1.00;0.20;;;24.40;48.00;23.30;101673.00;;;;5067480;28;20501;-66
2022/06/28 12:34:21;;;;;;;1.17;0.25;;;24.40;47.90;23.30;101664.00;;;;5065384;28;20152;-66